createdAt,value
2023-01-25T00:00:55.015Z,31.52
2023-01-25T00:03:23.031Z,31.33
2023-01-25T00:05:59.887Z,31.23
2023-01-25T00:08:27.730Z,29.75
2023-01-25T00:10:57.638Z,32.15
2023-01-25T00:13:27.933Z,31.95
2023-01-25T00:16:01.370Z,33.95
2023-01-25T00:18:29.232Z,32.45
2023-01-25T00:20:57.148Z,32.83
2023-01-25T00:23:25.011Z,31.85
2023-01-25T00:25:58.824Z,32.55
2023-01-25T00:28:28.158Z,32.30
2023-01-25T00:31:01.025Z,33.25
2023-01-25T00:33:50.252Z,33.85
2023-01-25T00:36:40.684Z,31.98
2023-01-25T00:39:12.892Z,30.58
2023-01-25T00:41:41.375Z,31.10
2023-01-25T00:44:11.231Z,34.30
2023-01-25T00:46:39.105Z,34.60
2023-01-25T00:49:07.003Z,34.30
2023-01-25T00:51:35.061Z,33.17
2023-01-25T00:54:02.960Z,31.70
2023-01-25T00:56:30.871Z,32.97
2023-01-25T00:58:58.729Z,33.00
2023-01-25T01:01:28.020Z,33.25
2023-01-25T01:03:55.941Z,33.45
2023-01-25T01:06:23.994Z,34.47
2023-01-25T01:08:52.186Z,34.30
2023-01-25T01:11:20.105Z,32.90
2023-01-25T01:13:47.965Z,31.35
2023-01-25T01:16:15.937Z,31.23
2023-01-25T01:18:46.547Z,31.95
2023-01-25T01:21:15.309Z,32.35
2023-01-25T01:23:43.535Z,31.60
2023-01-25T01:26:15.099Z,35.40
2023-01-25T01:28:43.180Z,31.65
2023-01-25T01:31:14.073Z,32.95
2023-01-25T01:33:42.235Z,31.75
2023-01-25T01:36:14.820Z,31.63
2023-01-25T01:38:42.996Z,31.52
2023-01-25T01:41:11.667Z,31.10
2023-01-25T01:43:40.028Z,31.30
2023-01-25T01:46:13.068Z,31.98
2023-01-25T01:48:44.696Z,32.42
2023-01-25T01:51:19.779Z,31.50
2023-01-25T01:53:51.865Z,30.67
2023-01-25T01:56:24.762Z,30.75
2023-01-25T01:58:54.666Z,31.42
2023-01-25T02:01:22.849Z,31.65
2023-01-25T02:03:52.602Z,33.25
2023-01-25T02:06:29.234Z,31.65
2023-01-25T02:08:58.367Z,30.60
2023-01-25T02:11:27.979Z,31.23
2023-01-25T02:13:59.074Z,31.75
2023-01-25T02:16:29.309Z,31.02
2023-01-25T02:19:02.083Z,31.50
2023-01-25T02:21:36.506Z,32.67
2023-01-25T02:24:12.061Z,30.80
2023-01-25T02:26:41.457Z,32.75
2023-01-25T02:29:10.730Z,32.38
2023-01-25T02:31:38.841Z,32.65
2023-01-25T02:34:06.844Z,32.00
2023-01-25T02:36:36.115Z,30.75
2023-01-25T02:39:08.274Z,31.60
2023-01-25T02:41:37.912Z,32.00
2023-01-25T02:44:12.814Z,30.10
2023-01-25T02:46:42.122Z,30.65
2023-01-25T02:49:11.363Z,29.17
2023-01-25T02:51:41.485Z,30.13
2023-01-25T02:54:11.270Z,29.75
2023-01-25T02:56:40.647Z,31.33
2023-01-25T02:59:13.163Z,29.55
2023-01-25T03:01:42.952Z,30.48
2023-01-25T03:04:11.031Z,30.60
2023-01-25T03:06:39.789Z,31.10
2023-01-25T03:09:09.430Z,29.98
2023-01-25T03:11:37.405Z,31.35
2023-01-25T03:14:05.274Z,32.05
2023-01-25T03:16:34.546Z,30.70
2023-01-25T03:19:02.483Z,31.30
2023-01-25T03:21:30.448Z,29.00
2023-01-25T03:23:59.830Z,31.23
2023-01-25T03:26:29.228Z,30.40
2023-01-25T03:28:57.285Z,28.35
2023-01-25T03:31:25.680Z,30.17
2023-01-25T03:33:54.951Z,32.17
2023-01-25T03:36:22.891Z,30.00
2023-01-25T03:38:50.762Z,28.70
2023-01-25T03:41:18.617Z,29.08
2023-01-25T03:43:46.517Z,30.42
2023-01-25T03:46:14.383Z,31.70
2023-01-25T03:48:42.255Z,30.42
2023-01-25T03:51:11.477Z,29.98
2023-01-25T03:53:39.352Z,30.95
2023-01-25T03:56:09.812Z,31.23
2023-01-25T03:58:39.243Z,32.20
2023-01-25T04:01:08.754Z,28.85
2023-01-25T04:03:36.815Z,28.92
2023-01-25T04:06:06.059Z,29.08
2023-01-25T04:08:35.496Z,30.60
2023-01-25T04:11:05.763Z,28.40
2023-01-25T04:13:35.146Z,28.48
2023-01-25T04:16:03.360Z,28.42
2023-01-25T04:18:31.203Z,30.27
2023-01-25T04:20:59.605Z,28.48
2023-01-25T04:23:28.131Z,28.95
2023-01-25T04:25:59.149Z,29.73
2023-01-25T04:28:27.919Z,27.52
2023-01-25T04:30:56.963Z,32.15
2023-01-25T04:33:25.474Z,32.30
2023-01-25T04:35:53.835Z,29.08
2023-01-25T04:38:21.915Z,29.38
2023-01-25T04:40:49.772Z,27.27
2023-01-25T04:43:20.427Z,26.27
2023-01-25T04:45:48.550Z,25.67
2023-01-25T04:48:16.857Z,26.67
2023-01-25T04:50:45.034Z,25.88
2023-01-25T04:53:14.853Z,27.38
2023-01-25T04:55:46.697Z,25.00
2023-01-25T04:58:14.723Z,26.30
2023-01-25T05:00:43.963Z,27.38
2023-01-25T05:03:11.885Z,24.95
2023-01-25T05:05:39.736Z,26.25
2023-01-25T05:08:07.704Z,25.77
2023-01-25T05:10:35.925Z,24.50
2023-01-25T05:13:03.922Z,25.95
2023-01-25T05:15:31.791Z,27.75
2023-01-25T05:18:00.976Z,26.50
2023-01-25T05:20:28.935Z,26.42
2023-01-25T05:22:56.886Z,26.25
2023-01-25T05:25:42.590Z,27.30
2023-01-25T05:28:10.471Z,28.48
2023-01-25T05:30:38.428Z,27.50
2023-01-25T05:33:07.665Z,25.30
2023-01-25T05:35:35.607Z,25.60
2023-01-25T05:38:03.496Z,24.75
2023-01-25T05:40:31.348Z,22.38
2023-01-25T05:43:00.698Z,22.77
2023-01-25T05:45:30.013Z,25.83
2023-01-25T05:47:59.620Z,22.15
2023-01-25T05:50:29.008Z,24.55
2023-01-25T05:52:56.915Z,26.27
2023-01-25T05:55:24.814Z,25.42
2023-01-25T05:57:55.827Z,20.95
2023-01-25T06:00:24.307Z,21.85
2023-01-25T06:02:52.604Z,21.05
2023-01-25T06:05:20.574Z,20.85
2023-01-25T06:07:49.772Z,22.88
2023-01-25T06:10:17.947Z,21.58
2023-01-25T06:12:45.841Z,22.35
2023-01-25T06:15:13.702Z,21.25
2023-01-25T06:17:41.557Z,21.58
2023-01-25T06:20:10.752Z,21.23
2023-01-25T06:22:38.603Z,21.73
2023-01-25T06:25:09.508Z,22.17
2023-01-25T06:27:37.673Z,22.45
2023-01-25T06:30:06.272Z,21.63
2023-01-25T06:32:34.783Z,20.27
2023-01-25T06:35:02.742Z,20.15
2023-01-25T06:37:30.607Z,19.88
2023-01-25T06:39:58.489Z,19.35
2023-01-25T06:42:27.771Z,19.45
2023-01-25T06:44:55.652Z,21.15
2023-01-25T06:47:23.563Z,22.60
2023-01-25T06:49:51.430Z,22.38
2023-01-25T06:52:19.287Z,22.15
2023-01-25T06:54:47.140Z,24.05
2023-01-25T06:57:15.106Z,22.15
2023-01-25T06:59:44.344Z,24.48
2023-01-25T07:02:16.080Z,23.55
2023-01-25T07:04:43.966Z,21.05
2023-01-25T07:07:12.068Z,21.33
2023-01-25T07:09:40.077Z,22.55
2023-01-25T07:12:08.256Z,22.10
2023-01-25T07:14:36.270Z,19.80
2023-01-25T07:17:05.486Z,20.17
2023-01-25T07:19:33.407Z,20.00
2023-01-25T07:22:01.318Z,20.20
2023-01-25T07:24:29.763Z,20.13
2023-01-25T07:26:57.730Z,22.65
2023-01-25T07:29:25.627Z,20.73
2023-01-25T07:31:53.582Z,21.88
2023-01-25T07:34:23.158Z,20.42
2023-01-25T07:36:51.017Z,20.13
2023-01-25T07:39:18.885Z,20.90
2023-01-25T07:41:46.730Z,22.80
2023-01-25T07:44:14.723Z,21.17
2023-01-25T07:46:42.571Z,23.00
2023-01-25T07:49:10.556Z,21.40
2023-01-25T07:51:40.076Z,22.30
2023-01-25T07:54:08.028Z,20.50
2023-01-25T07:56:39.345Z,21.75
2023-01-25T07:59:08.927Z,20.17
2023-01-25T08:01:37.544Z,20.60
2023-01-25T08:04:06.817Z,21.73
2023-01-25T08:06:38.864Z,23.30
2023-01-25T08:09:12.020Z,22.40
2023-01-25T08:11:39.935Z,22.15
2023-01-25T08:14:08.323Z,22.95
2023-01-25T08:16:36.245Z,21.80
2023-01-25T08:19:04.898Z,25.10
2023-01-25T08:21:34.206Z,24.08
2023-01-25T08:24:04.789Z,23.67
2023-01-25T08:26:34.970Z,22.40
2023-01-25T08:29:03.411Z,22.77
2023-01-25T08:31:34.050Z,23.20
2023-01-25T08:34:02.793Z,23.73
2023-01-25T08:36:30.682Z,22.98
2023-01-25T08:39:00.370Z,22.30
2023-01-25T08:41:29.564Z,22.77
2023-01-25T08:43:59.270Z,22.67
2023-01-25T08:46:33.042Z,23.27
2023-01-25T08:49:02.769Z,23.33
2023-01-25T08:51:32.220Z,23.75
2023-01-25T08:54:03.996Z,21.50
2023-01-25T08:56:31.867Z,20.77
2023-01-25T08:59:01.387Z,21.52
2023-01-25T09:01:30.292Z,21.98
2023-01-25T09:03:59.262Z,20.77
2023-01-25T09:06:27.200Z,20.27
2023-01-25T09:08:55.119Z,22.40
2023-01-25T09:11:23.854Z,22.38
2023-01-25T09:13:51.722Z,22.45
2023-01-25T09:16:28.176Z,20.40
2023-01-25T09:18:57.663Z,21.70
2023-01-25T09:21:25.602Z,22.05
2023-01-25T09:24:10.002Z,21.70
2023-01-25T09:26:40.148Z,22.20
2023-01-25T09:29:09.378Z,22.02
2023-01-25T09:31:43.498Z,22.67
2023-01-25T09:34:12.191Z,23.88
2023-01-25T09:36:40.070Z,24.08
2023-01-25T09:39:08.083Z,25.38
2023-01-25T09:42:14.895Z,23.90
2023-01-25T09:45:02.319Z,22.65
2023-01-25T09:47:39.304Z,22.40
2023-01-25T09:50:26.032Z,22.60
2023-01-25T09:53:16.406Z,23.05
2023-01-25T09:55:45.108Z,24.58
2023-01-25T09:58:20.542Z,24.00
2023-01-25T10:00:51.883Z,25.27
2023-01-25T10:03:26.283Z,23.85
2023-01-25T10:05:57.300Z,23.15
2023-01-25T10:08:32.364Z,22.40
2023-01-25T10:11:06.213Z,22.75
2023-01-25T10:13:34.134Z,23.80
2023-01-25T10:16:09.907Z,23.35
2023-01-25T10:18:53.899Z,23.33
2023-01-25T10:21:27.390Z,22.63
2023-01-25T10:24:33.632Z,23.52
2023-01-25T10:27:08.752Z,22.52
2023-01-25T10:29:38.497Z,22.08
2023-01-25T10:32:18.693Z,21.42
2023-01-25T10:34:56.662Z,21.60
2023-01-25T10:37:29.078Z,24.90
2023-01-25T10:40:05.600Z,22.38
2023-01-25T10:42:40.701Z,23.38
2023-01-25T10:45:13.426Z,21.83
2023-01-25T10:47:44.819Z,21.83
2023-01-25T10:50:45.086Z,21.08
2023-01-25T10:53:40.383Z,23.00
2023-01-25T10:56:25.322Z,21.30
2023-01-25T10:59:06.371Z,22.25
2023-01-25T11:01:36.447Z,21.33
2023-01-25T11:04:04.703Z,19.75
2023-01-25T11:06:36.045Z,22.98
2023-01-25T11:09:34.693Z,21.73
2023-01-25T11:12:04.147Z,22.10
2023-01-25T11:14:33.850Z,22.70
2023-01-25T11:17:04.283Z,21.70
2023-01-25T11:19:36.956Z,21.30
2023-01-25T11:22:20.744Z,22.02
2023-01-25T11:24:48.913Z,23.98
2023-01-25T11:27:22.121Z,21.52
2023-01-25T11:30:10.213Z,21.27
2023-01-25T11:32:40.207Z,19.55
2023-01-25T11:35:14.202Z,20.77
2023-01-25T11:38:03.283Z,23.60
2023-01-25T11:40:38.935Z,21.45
2023-01-25T11:43:25.725Z,19.25
2023-01-25T11:46:21.025Z,21.25
2023-01-25T11:49:10.877Z,21.35
2023-01-25T11:51:45.646Z,20.23
2023-01-25T11:54:43.204Z,22.92
2023-01-25T11:57:26.765Z,20.45
2023-01-25T12:00:14.951Z,19.85
2023-01-25T12:03:08.988Z,24.42
2023-01-25T12:05:51.384Z,21.38
2023-01-25T12:08:33.108Z,21.88
2023-01-25T12:11:10.462Z,21.55
2023-01-25T12:13:50.384Z,21.85
2023-01-25T12:16:44.097Z,21.45
2023-01-25T12:19:42.293Z,22.08
2023-01-25T12:22:25.727Z,20.73
2023-01-25T12:25:00.393Z,21.30
2023-01-25T12:27:43.589Z,21.20
2023-01-25T12:30:20.691Z,21.85
2023-01-25T12:32:53.918Z,21.60
2023-01-25T12:35:31.528Z,22.52
2023-01-25T12:38:04.562Z,22.90
2023-01-25T12:40:46.431Z,20.10
2023-01-25T12:43:19.806Z,21.40
2023-01-25T12:45:50.085Z,19.55
2023-01-25T12:48:22.048Z,19.75
2023-01-25T12:50:55.215Z,22.10
2023-01-25T12:53:25.979Z,20.92
2023-01-25T12:55:54.737Z,22.00
2023-01-25T12:58:37.722Z,22.40
2023-01-25T13:01:14.791Z,22.83
2023-01-25T13:04:06.700Z,19.88
2023-01-25T13:06:43.527Z,20.35
2023-01-25T13:09:17.623Z,21.27
2023-01-25T13:11:47.267Z,21.30
2023-01-25T13:14:31.743Z,21.80
2023-01-25T13:17:25.735Z,22.63
2023-01-25T13:19:54.457Z,22.13
2023-01-25T13:22:58.593Z,20.88
2023-01-25T13:25:27.585Z,20.83
2023-01-25T13:28:42.885Z,22.13
2023-01-25T13:31:11.085Z,20.52
2023-01-25T13:33:39.006Z,20.13
2023-01-25T13:36:38.577Z,21.95
2023-01-25T13:39:39.884Z,23.17
2023-01-25T13:42:21.272Z,22.35
2023-01-25T13:44:53.381Z,22.83
2023-01-25T13:47:23.729Z,22.40
2023-01-25T13:49:58.281Z,21.98
2023-01-25T13:52:27.743Z,23.98
2023-01-25T13:54:58.154Z,21.67
2023-01-25T13:57:27.836Z,25.15
2023-01-25T14:00:10.587Z,21.67
2023-01-25T14:02:41.461Z,23.58
2023-01-25T14:05:19.838Z,24.50
2023-01-25T14:07:50.467Z,22.38
2023-01-25T14:10:23.477Z,22.38
2023-01-25T14:12:52.772Z,24.58
2023-01-25T14:15:25.357Z,23.98
2023-01-25T14:18:14.068Z,24.85
2023-01-25T14:20:42.499Z,24.77
2023-01-25T14:23:24.878Z,22.88
2023-01-25T14:25:54.731Z,23.52
2023-01-25T14:28:23.012Z,24.95
2023-01-25T14:30:57.360Z,25.42
2023-01-25T14:33:28.503Z,23.45
2023-01-25T14:36:03.515Z,25.52
2023-01-25T14:38:38.436Z,25.90
2023-01-25T14:41:13.397Z,26.73
2023-01-25T14:43:45.244Z,25.83
2023-01-25T14:46:26.662Z,27.17
2023-01-25T14:49:25.158Z,24.75
2023-01-25T14:52:00.184Z,27.95
2023-01-25T14:54:29.963Z,24.58
2023-01-25T14:57:00.582Z,26.98
2023-01-25T14:59:32.894Z,27.35
2023-01-25T15:02:05.213Z,25.92
2023-01-25T15:04:35.417Z,26.10
2023-01-25T15:07:16.689Z,24.50
2023-01-25T15:10:03.995Z,28.35
2023-01-25T15:12:33.000Z,27.48
2023-01-25T15:15:02.729Z,28.08
2023-01-25T15:17:40.230Z,28.55
2023-01-25T15:20:28.137Z,27.30
2023-01-25T15:22:57.873Z,27.17
2023-01-25T15:25:26.107Z,25.77
2023-01-25T15:27:54.661Z,24.80
2023-01-25T15:30:22.747Z,29.98
2023-01-25T15:32:52.039Z,26.33
2023-01-25T15:35:21.672Z,27.98
2023-01-25T15:37:49.957Z,27.77
2023-01-25T15:40:18.252Z,28.10
2023-01-25T15:42:46.076Z,27.63
2023-01-25T15:45:13.923Z,25.85
2023-01-25T15:47:41.810Z,25.83
2023-01-25T15:50:19.013Z,27.75
2023-01-25T15:52:47.610Z,26.42
2023-01-25T15:55:15.808Z,27.08
2023-01-25T15:57:45.803Z,28.13
2023-01-25T16:00:18.863Z,28.10
2023-01-25T16:02:46.794Z,28.42
2023-01-25T16:05:16.361Z,30.48
2023-01-25T16:07:45.870Z,29.00
2023-01-25T16:10:21.787Z,29.88
2023-01-25T16:12:50.111Z,28.98
2023-01-25T16:15:18.173Z,30.02
2023-01-25T16:17:46.290Z,29.42
2023-01-25T16:20:20.643Z,30.58
2023-01-25T16:22:48.848Z,28.77
2023-01-25T16:25:16.954Z,28.38
2023-01-25T16:27:44.853Z,29.08
2023-01-25T16:30:20.120Z,28.50
2023-01-25T16:32:50.111Z,28.10
2023-01-25T16:35:19.561Z,30.67
2023-01-25T16:37:47.505Z,27.80
2023-01-25T16:40:24.586Z,30.45
2023-01-25T16:42:52.838Z,28.20
2023-01-25T16:45:20.770Z,28.13
2023-01-25T16:47:48.699Z,26.90
2023-01-25T16:50:19.864Z,27.85
2023-01-25T16:52:49.926Z,27.63
2023-01-25T16:55:18.403Z,27.75
2023-01-25T16:57:50.020Z,27.80
2023-01-25T17:00:18.623Z,27.50
2023-01-25T17:02:58.799Z,28.10
2023-01-25T17:05:33.641Z,24.33
2023-01-25T17:08:01.603Z,23.83
2023-01-25T17:10:33.040Z,24.45
2023-01-25T17:13:00.955Z,23.85
2023-01-25T17:15:28.925Z,23.42
2023-01-25T17:17:56.796Z,25.85
2023-01-25T17:20:25.121Z,25.38
2023-01-25T17:22:54.357Z,25.95
2023-01-25T17:25:22.329Z,25.50
2023-01-25T17:27:50.209Z,26.63
2023-01-25T17:30:19.502Z,26.90
2023-01-25T17:32:47.373Z,25.83
2023-01-25T17:35:15.444Z,25.35
2023-01-25T17:37:43.381Z,26.02
2023-01-25T17:40:13.661Z,24.90
2023-01-25T17:42:41.611Z,26.88
2023-01-25T17:45:10.343Z,23.98
2023-01-25T17:47:38.369Z,25.35
2023-01-25T17:50:07.121Z,27.45
2023-01-25T17:52:35.075Z,25.15
2023-01-25T17:55:03.744Z,26.48
2023-01-25T17:57:32.982Z,25.30
2023-01-25T18:00:00.874Z,26.23
2023-01-25T18:02:28.889Z,26.98
2023-01-25T18:04:57.841Z,25.80
2023-01-25T18:07:26.111Z,26.60
2023-01-25T18:09:54.039Z,26.50
2023-01-25T18:12:22.069Z,27.90
2023-01-25T18:14:51.686Z,25.73
2023-01-25T18:17:19.565Z,23.92
2023-01-25T18:19:48.979Z,25.45
2023-01-25T18:22:17.278Z,26.88
2023-01-25T18:24:45.912Z,25.08
2023-01-25T18:27:20.820Z,21.55
2023-01-25T18:29:55.950Z,20.92
2023-01-25T18:32:26.462Z,21.35
2023-01-25T18:34:54.547Z,21.92
2023-01-25T18:37:24.063Z,22.92
2023-01-25T18:39:53.419Z,23.20
2023-01-25T18:42:23.158Z,23.85
2023-01-25T18:44:51.264Z,23.95
2023-01-25T18:47:23.707Z,22.23
2023-01-25T18:49:52.812Z,24.00
2023-01-25T18:52:23.379Z,24.27
2023-01-25T18:54:51.618Z,23.75
2023-01-25T18:57:19.496Z,20.85
2023-01-25T18:59:47.432Z,18.40
2023-01-25T19:02:16.786Z,19.30
2023-01-25T19:04:46.478Z,18.98
2023-01-25T19:07:14.353Z,20.00
2023-01-25T19:09:43.493Z,19.67
2023-01-25T19:12:11.591Z,20.83
2023-01-25T19:14:39.454Z,19.50
2023-01-25T19:17:08.301Z,19.27
2023-01-25T19:19:36.192Z,18.83
2023-01-25T19:22:05.697Z,21.38
2023-01-25T19:24:33.545Z,21.42
2023-01-25T19:27:01.553Z,20.23
2023-01-25T19:29:29.430Z,21.42
2023-01-25T19:31:57.369Z,19.50
2023-01-25T19:34:25.657Z,19.80
2023-01-25T19:36:53.961Z,20.33
2023-01-25T19:39:23.239Z,21.00
2023-01-25T19:41:53.007Z,22.25
2023-01-25T19:44:21.410Z,19.70
2023-01-25T19:46:49.731Z,18.83
2023-01-25T19:49:17.737Z,20.75
2023-01-25T19:51:52.567Z,19.10
2023-01-25T19:54:21.629Z,19.75
2023-01-25T19:56:51.657Z,17.13
2023-01-25T19:59:20.734Z,18.95
2023-01-25T20:01:49.198Z,20.02
2023-01-25T20:04:19.690Z,18.95
2023-01-25T20:06:48.149Z,20.45
2023-01-25T20:09:17.296Z,21.10
2023-01-25T20:11:46.108Z,20.40
2023-01-25T20:14:15.710Z,20.42
2023-01-25T20:16:43.757Z,20.30
2023-01-25T20:19:12.914Z,21.92
2023-01-25T20:21:40.882Z,22.48
2023-01-25T20:24:10.311Z,21.05
2023-01-25T20:26:42.541Z,21.63
2023-01-25T20:29:11.614Z,22.02
2023-01-25T20:31:42.782Z,20.25
2023-01-25T20:34:13.425Z,22.33
2023-01-25T20:36:42.068Z,21.63
2023-01-25T20:39:12.341Z,25.80
2023-01-25T20:41:40.217Z,22.15
2023-01-25T20:44:09.669Z,25.45
2023-01-25T20:46:40.337Z,26.60
2023-01-25T20:49:10.405Z,23.98
2023-01-25T20:51:38.311Z,23.63
2023-01-25T20:54:06.328Z,24.92
2023-01-25T20:56:34.158Z,23.45
2023-01-25T20:59:02.152Z,24.55
2023-01-25T21:01:33.871Z,24.05
2023-01-25T21:04:03.816Z,22.70
2023-01-25T21:06:31.703Z,23.88
2023-01-25T21:08:59.849Z,24.92
2023-01-25T21:11:27.810Z,25.20
2023-01-25T21:13:55.775Z,24.63
2023-01-25T21:16:24.347Z,26.88
2023-01-25T21:18:54.484Z,25.35
2023-01-25T21:21:25.775Z,24.70
2023-01-25T21:23:56.595Z,24.50
2023-01-25T21:26:26.615Z,23.55
2023-01-25T21:28:55.494Z,22.40
2023-01-25T21:31:25.608Z,22.73
2023-01-25T21:33:54.208Z,23.58
2023-01-25T21:36:24.052Z,25.13
2023-01-25T21:38:53.434Z,25.42
2023-01-25T21:41:24.401Z,24.77
2023-01-25T21:44:11.302Z,26.20
2023-01-25T21:46:39.698Z,28.15
2023-01-25T21:49:26.451Z,25.42
2023-01-25T21:51:59.143Z,26.88
2023-01-25T21:54:28.691Z,25.40
2023-01-25T21:56:58.236Z,26.17
2023-01-25T21:59:26.397Z,24.98
2023-01-25T22:01:55.767Z,24.48
2023-01-25T22:04:25.275Z,25.77
2023-01-25T22:06:54.471Z,27.52
2023-01-25T22:09:24.140Z,25.88
2023-01-25T22:11:53.927Z,28.52
2023-01-25T22:14:23.174Z,26.08
2023-01-25T22:16:51.167Z,26.65
2023-01-25T22:19:19.513Z,24.95
2023-01-25T22:21:47.706Z,28.10
2023-01-25T22:24:15.851Z,27.65
2023-01-25T22:27:04.387Z,27.20
2023-01-25T22:29:33.317Z,26.27
2023-01-25T22:32:02.104Z,26.27
2023-01-25T22:34:30.030Z,26.52
2023-01-25T22:36:58.025Z,24.92
2023-01-25T22:39:25.985Z,25.25
2023-01-25T22:41:55.796Z,26.58
2023-01-25T22:44:23.677Z,25.67
2023-01-25T22:46:52.806Z,28.50
2023-01-25T22:49:20.819Z,26.25
2023-01-25T22:51:48.788Z,26.73
2023-01-25T22:54:16.671Z,29.23
2023-01-25T22:56:44.583Z,28.85
2023-01-25T22:59:18.642Z,28.35
2023-01-25T23:01:46.664Z,26.70
2023-01-25T23:04:14.621Z,28.63
2023-01-25T23:06:42.640Z,29.67
2023-01-25T23:09:11.504Z,28.52
2023-01-25T23:11:39.697Z,30.67
2023-01-25T23:14:26.219Z,28.95
2023-01-25T23:17:15.718Z,30.23
2023-01-25T23:19:42.649Z,29.00
2023-01-25T23:22:10.485Z,32.47
2023-01-25T23:24:38.375Z,28.55
2023-01-25T23:27:06.255Z,31.70
2023-01-25T23:29:34.150Z,30.60
2023-01-25T23:32:03.366Z,33.75
2023-01-25T23:34:34.661Z,31.08
2023-01-25T23:37:02.638Z,33.30
2023-01-25T23:39:30.577Z,31.17
2023-01-25T23:41:58.479Z,32.42
2023-01-25T23:44:26.348Z,29.70
2023-01-25T23:46:54.200Z,31.40
2023-01-25T23:49:23.424Z,31.77
2023-01-25T23:51:51.266Z,28.55
2023-01-25T23:54:19.180Z,28.60
2023-01-25T23:56:47.037Z,27.67
2023-01-25T23:59:14.908Z,28.35
